Time,TemperatureF,DewpointF,PressureIn,WindDirection,WindDirectionDegrees,WindSpeedMPH,WindSpeedGustMPH,Humidity,HourlyPrecipIn,Conditions,Clouds,dailyrainin,SoftwareType,DateUTC
2013-02-23 00:01:00,51.1,44.5,30.25,West,270,3.1,4.9,78,0.00,,,0.00,WUHU216HW,2013-02-23 08:01:00,
2013-02-23 00:06:00,51.1,44.5,30.24,WSW,248,3.1,4.5,78,0.00,,,0.00,WUHU216HW,2013-02-23 08:06:00,
2013-02-23 00:11:00,51.1,44.5,30.24,WSW,248,1.8,3.6,78,0.00,,,0.00,WUHU216HW,2013-02-23 08:11:00,
2013-02-23 00:16:00,51.1,44.5,30.24,WSW,248,3.4,3.4,78,0.00,,,0.00,WUHU216HW,2013-02-23 08:16:00,
2013-02-23 00:21:00,50.9,44.3,30.24,SSW,203,2.7,3.4,78,0.00,,,0.00,WUHU216HW,2013-02-23 08:21:00,
2013-02-23 00:26:00,51.1,44.5,30.24,SW,225,1.6,3.6,78,0.00,,,0.00,WUHU216HW,2013-02-23 08:26:00,
2013-02-23 00:31:00,50.9,44.3,30.24,WSW,248,1.6,3.6,78,0.00,,,0.00,WUHU216HW,2013-02-23 08:31:00,
2013-02-23 00:36:00,50.9,44.3,30.22,SSW,203,2.5,2.5,78,0.00,,,0.00,WUHU216HW,2013-02-23 08:36:00,
2013-02-23 00:41:00,50.9,44.3,30.23,SW,225,0.0,2.5,78,0.00,,,0.00,WUHU216HW,2013-02-23 08:41:00,
2013-02-23 00:46:00,50.9,44.3,30.23,SSW,203,1.8,1.8,78,0.00,,,0.00,WUHU216HW,2013-02-23 08:46:00,
2013-02-23 00:51:00,50.9,44.3,30.22,SSW,203,2.2,2.2,78,0.00,,,0.00,WUHU216HW,2013-02-23 08:51:00,
2013-02-23 00:56:00,50.8,44.1,30.22,SW,225,0.7,2.2,78,0.00,,,0.00,WUHU216HW,2013-02-23 08:56:00,
2013-02-23 01:01:00,50.8,44.1,30.22,SW,225,0.4,1.8,78,0.00,,,0.00,WUHU216HW,2013-02-23 09:01:00,
2013-02-23 01:06:00,50.8,44.1,30.22,SSW,203,1.1,1.3,78,0.00,,,0.00,WUHU216HW,2013-02-23 09:06:00,
2013-02-23 01:11:00,50.8,44.1,30.23,SSW,203,1.1,1.3,78,0.00,,,0.00,WUHU216HW,2013-02-23 09:11:00,
2013-02-23 01:16:00,50.8,44.5,30.23,SW,225,0.2,1.3,79,0.00,,,0.00,WUHU216HW,2013-02-23 09:16:00,
2013-02-23 01:21:00,50.8,44.5,30.23,WSW,248,1.3,1.3,79,0.00,,,0.00,WUHU216HW,2013-02-23 09:21:00,
2013-02-23 01:26:00,50.8,44.5,30.22,WSW,248,0.0,1.3,79,0.00,,,0.00,WUHU216HW,2013-02-23 09:26:00,
2013-02-23 01:31:00,50.8,44.5,30.22,WSW,248,0.0,1.3,79,0.00,,,0.00,WUHU216HW,2013-02-23 09:31:00,
2013-02-23 01:36:00,50.6,44.3,30.22,WSW,248,0.0,0.4,79,0.00,,,0.00,WUHU216HW,2013-02-23 09:36:00,
2013-02-23 01:41:00,50.6,44.3,30.22,WSW,248,0.0,0.0,79,0.00,,,0.00,WUHU216HW,2013-02-23 09:41:00,
2013-02-23 01:46:00,50.4,44.1,30.23,WSW,248,0.0,0.2,79,0.00,,,0.00,WUHU216HW,2013-02-23 09:46:00,
2013-02-23 01:51:00,50.4,44.1,30.22,WSW,248,0.0,0.2,79,0.00,,,0.00,WUHU216HW,2013-02-23 09:51:00,
2013-02-23 01:56:00,50.4,44.1,30.21,WSW,248,0.0,0.0,79,0.00,,,0.00,WUHU216HW,2013-02-23 09:56:00,
2013-02-23 02:01:00,50.2,43.9,30.21,WSW,248,0.0,0.0,79,0.00,,,0.00,WUHU216HW,2013-02-23 10:01:00,
2013-02-23 02:06:00,50.2,43.9,30.20,SW,225,1.1,1.1,79,0.00,,,0.00,WUHU216HW,2013-02-23 10:06:00,
2013-02-23 02:11:00,50.2,43.9,30.20,WSW,248,2.0,2.0,79,0.00,,,0.00,WUHU216HW,2013-02-23 10:11:00,
2013-02-23 02:16:00,50.2,44.3,30.21,SW,225,1.8,2.0,80,0.00,,,0.00,WUHU216HW,2013-02-23 10:16:00,
2013-02-23 02:21:00,50.2,44.3,30.21,SW,225,1.1,1.8,80,0.00,,,0.00,WUHU216HW,2013-02-23 10:21:00,
2013-02-23 02:26:00,50.2,44.3,30.22,SW,225,1.3,2.5,80,0.00,,,0.00,WUHU216HW,2013-02-23 10:26:00,
2013-02-23 02:31:00,50.2,44.3,30.22,WSW,248,3.4,3.4,80,0.00,,,0.00,WUHU216HW,2013-02-23 10:31:00,
2013-02-23 02:36:00,50.2,44.3,30.21,SSW,203,2.5,3.4,80,0.00,,,0.00,WUHU216HW,2013-02-23 10:36:00,
2013-02-23 02:41:00,50.2,44.3,30.21,SSW,203,2.0,4.7,80,0.00,,,0.00,WUHU216HW,2013-02-23 10:41:00,
2013-02-23 02:46:00,50.2,44.3,30.21,SW,225,3.6,4.7,80,0.00,,,0.00,WUHU216HW,2013-02-23 10:46:00,
2013-02-23 02:51:00,50.2,44.3,30.20,SW,225,5.4,5.4,80,0.00,,,0.00,WUHU216HW,2013-02-23 10:51:00,
2013-02-23 02:56:00,50.2,44.6,30.20,WSW,248,4.3,5.4,81,0.00,,,0.00,WUHU216HW,2013-02-23 10:56:00,
2013-02-23 03:01:00,50.2,44.6,30.20,WSW,248,4.0,4.3,81,0.00,,,0.00,WUHU216HW,2013-02-23 11:01:00,
2013-02-23 03:06:00,50.2,44.6,30.21,SSW,203,1.8,4.0,81,0.00,,,0.00,WUHU216HW,2013-02-23 11:06:00,
2013-02-23 03:11:00,50.2,44.6,30.20,SSW,203,1.8,1.8,81,0.00,,,0.00,WUHU216HW,2013-02-23 11:11:00,
2013-02-23 03:16:00,50.4,44.5,30.20,SW,225,1.1,2.5,80,0.00,,,0.00,WUHU216HW,2013-02-23 11:16:00,
2013-02-23 03:21:00,50.4,44.5,30.20,SW,225,1.3,2.5,80,0.00,,,0.00,WUHU216HW,2013-02-23 11:21:00,
2013-02-23 03:26:00,50.4,44.5,30.20,SW,225,2.7,2.7,80,0.00,,,0.00,WUHU216HW,2013-02-23 11:26:00,
2013-02-23 03:31:00,50.4,44.5,30.19,SW,225,0.4,2.7,80,0.00,,,0.00,WUHU216HW,2013-02-23 11:31:00,
2013-02-23 03:36:00,50.4,44.5,30.19,SSW,203,1.3,1.8,80,0.00,,,0.00,WUHU216HW,2013-02-23 11:36:00,
2013-02-23 03:41:00,50.4,44.5,30.19,SSW,203,0.7,1.8,80,0.00,,,0.00,WUHU216HW,2013-02-23 11:41:00,
2013-02-23 03:46:00,50.4,44.5,30.19,SW,225,0.7,1.1,80,0.00,,,0.00,WUHU216HW,2013-02-23 11:46:00,
2013-02-23 03:51:00,50.4,44.5,30.19,SSW,203,0.0,1.1,80,0.00,,,0.00,WUHU216HW,2013-02-23 11:51:00,
2013-02-23 03:56:00,50.4,44.5,30.19,SSW,203,0.0,0.7,80,0.00,,,0.00,WUHU216HW,2013-02-23 11:56:00,
2013-02-23 04:01:00,50.4,44.5,30.19,SW,225,2.0,2.0,80,0.00,,,0.00,WUHU216HW,2013-02-23 12:01:00,
2013-02-23 04:06:00,50.4,44.5,30.19,SW,225,1.1,2.0,80,0.00,,,0.00,WUHU216HW,2013-02-23 12:06:00,
2013-02-23 04:11:00,50.4,44.7,30.19,SW,225,0.0,1.1,81,0.00,,,0.00,WUHU216HW,2013-02-23 12:11:00,
2013-02-23 04:16:00,50.4,44.7,30.19,SW,225,0.0,0.4,81,0.00,,,0.00,WUHU216HW,2013-02-23 12:16:00,
2013-02-23 04:21:00,50.6,44.9,30.19,SW,225,0.0,0.0,81,0.00,,,0.00,WUHU216HW,2013-02-23 12:21:00,
2013-02-23 04:26:00,50.6,45.3,30.19,ENE,68,0.7,0.7,82,0.00,,,0.00,WUHU216HW,2013-02-23 12:26:00,
2013-02-23 04:31:00,50.4,45.1,30.19,NE,45,0.0,1.1,82,0.00,,,0.00,WUHU216HW,2013-02-23 12:31:00,
2013-02-23 04:36:00,50.4,45.1,30.18,NE,45,0.0,1.1,82,0.00,,,0.00,WUHU216HW,2013-02-23 12:36:00,
2013-02-23 04:41:00,50.2,44.9,30.18,SW,225,0.0,0.0,82,0.01,,,0.01,WUHU216HW,2013-02-23 12:41:00,
2013-02-23 04:46:00,50.2,44.9,30.18,SE,135,0.7,0.7,82,0.01,,,0.01,WUHU216HW,2013-02-23 12:46:00,
2013-02-23 04:51:00,50.2,44.9,30.18,SE,135,0.0,0.7,82,0.01,,,0.01,WUHU216HW,2013-02-23 12:51:00,
2013-02-23 04:56:00,50.2,44.9,30.18,SE,135,0.4,0.7,82,0.01,,,0.01,WUHU216HW,2013-02-23 12:56:00,
2013-02-23 05:01:00,50.2,45.2,30.18,SE,135,0.0,0.9,83,0.01,,,0.01,WUHU216HW,2013-02-23 13:01:00,
2013-02-23 05:06:00,50.2,45.2,30.18,SSE,158,0.0,0.9,83,0.01,,,0.01,WUHU216HW,2013-02-23 13:06:00,
2013-02-23 05:11:00,50.2,45.2,30.18,NW,315,0.0,0.7,83,0.01,,,0.01,WUHU216HW,2013-02-23 13:11:00,
2013-02-23 05:16:00,50.2,45.2,30.18,WNW,293,1.3,1.3,83,0.01,,,0.01,WUHU216HW,2013-02-23 13:16:00,
2013-02-23 05:21:00,50.2,45.6,30.18,SW,225,2.9,2.9,84,0.01,,,0.01,WUHU216HW,2013-02-23 13:21:00,
2013-02-23 05:26:00,50.2,45.6,30.17,SW,225,3.1,3.1,84,0.01,,,0.01,WUHU216HW,2013-02-23 13:26:00,
2013-02-23 05:31:00,50.2,45.8,30.18,West,270,3.6,5.8,85,0.01,,,0.01,WUHU216HW,2013-02-23 13:31:00,
2013-02-23 05:36:00,50.2,46.1,30.18,WNW,293,5.8,8.5,86,0.00,,,0.01,WUHU216HW,2013-02-23 13:36:00,
2013-02-23 05:41:00,50.0,45.9,30.18,NNW,338,4.9,8.5,86,0.00,,,0.01,WUHU216HW,2013-02-23 13:41:00,
2013-02-23 05:46:00,50.2,46.1,30.17,SW,225,5.8,8.1,86,0.00,,,0.01,WUHU216HW,2013-02-23 13:46:00,
2013-02-23 05:51:00,50.0,45.9,30.18,NW,315,2.5,5.8,86,0.00,,,0.01,WUHU216HW,2013-02-23 13:51:00,
2013-02-23 05:56:00,50.0,45.9,30.18,SW,225,1.6,4.3,86,0.00,,,0.01,WUHU216HW,2013-02-23 13:56:00,
2013-02-23 06:01:00,50.0,45.9,30.19,West,270,0.7,2.7,86,0.00,,,0.01,WUHU216HW,2013-02-23 14:01:00,
2013-02-23 06:06:00,50.0,45.6,30.18,West,270,1.3,1.3,85,0.00,,,0.01,WUHU216HW,2013-02-23 14:06:00,
2013-02-23 06:11:00,50.0,45.6,30.19,West,270,2.0,3.8,85,0.00,,,0.01,WUHU216HW,2013-02-23 14:11:00,
2013-02-23 06:16:00,49.9,45.5,30.19,NW,315,1.8,3.8,85,0.00,,,0.01,WUHU216HW,2013-02-23 14:16:00,
2013-02-23 06:21:00,49.9,45.5,30.19,WNW,293,1.8,3.4,85,0.00,,,0.01,WUHU216HW,2013-02-23 14:21:00,
2013-02-23 06:26:00,49.7,45.0,30.19,WNW,293,1.3,3.4,84,0.00,,,0.01,WUHU216HW,2013-02-23 14:26:00,
2013-02-23 06:31:00,49.7,45.0,30.19,WNW,293,2.2,2.2,84,0.00,,,0.01,WUHU216HW,2013-02-23 14:31:00,
2013-02-23 06:36:00,49.9,45.2,30.19,WNW,293,2.2,2.5,84,0.00,,,0.01,WUHU216HW,2013-02-23 14:36:00,
2013-02-23 06:41:00,49.7,45.0,30.19,WSW,248,1.8,2.5,84,0.00,,,0.01,WUHU216HW,2013-02-23 14:41:00,
2013-02-23 06:46:00,49.7,45.0,30.20,WNW,293,1.8,3.6,84,0.00,,,0.01,WUHU216HW,2013-02-23 14:46:00,
2013-02-23 06:51:00,49.7,45.0,30.20,West,270,1.1,3.6,84,0.00,,,0.01,WUHU216HW,2013-02-23 14:51:00,
2013-02-23 06:56:00,49.7,45.0,30.20,West,270,2.7,2.7,84,0.00,,,0.01,WUHU216HW,2013-02-23 14:56:00,
2013-02-23 07:01:00,49.7,45.0,30.21,West,270,2.5,2.7,84,0.00,,,0.01,WUHU216HW,2013-02-23 15:01:00,
2013-02-23 07:06:00,49.7,45.0,30.21,West,270,0.7,2.5,84,0.00,,,0.01,WUHU216HW,2013-02-23 15:06:00,
2013-02-23 07:11:00,49.7,45.0,30.21,WSW,248,0.0,1.6,84,0.00,,,0.01,WUHU216HW,2013-02-23 15:11:00,
2013-02-23 07:16:00,49.7,45.0,30.22,NNE,23,0.9,0.9,84,0.00,,,0.01,WUHU216HW,2013-02-23 15:16:00,
2013-02-23 07:21:00,49.7,45.0,30.22,NNW,338,1.1,1.1,84,0.00,,,0.01,WUHU216HW,2013-02-23 15:21:00,
2013-02-23 07:26:00,49.7,44.6,30.22,NNW,338,0.0,1.1,83,0.00,,,0.01,WUHU216HW,2013-02-23 15:26:00,
2013-02-23 07:31:00,49.7,44.6,30.22,North,0,0.4,1.1,83,0.00,,,0.01,WUHU216HW,2013-02-23 15:31:00,
2013-02-23 07:36:00,49.7,44.6,30.22,West,270,1.8,1.8,83,0.00,,,0.01,WUHU216HW,2013-02-23 15:36:00,
2013-02-23 07:41:00,49.7,44.6,30.23,West,270,1.1,1.8,83,0.00,,,0.01,WUHU216HW,2013-02-23 15:41:00,
2013-02-23 07:46:00,49.7,44.6,30.23,North,0,0.4,1.3,83,0.00,,,0.01,WUHU216HW,2013-02-23 15:46:00,
2013-02-23 07:51:00,49.7,44.6,30.23,NNW,338,2.9,2.9,83,0.00,,,0.01,WUHU216HW,2013-02-23 15:51:00,
2013-02-23 07:56:00,49.5,44.5,30.23,West,270,1.1,2.9,83,0.00,,,0.01,WUHU216HW,2013-02-23 15:56:00,
2013-02-23 08:01:00,49.7,44.6,30.24,West,270,1.1,2.9,83,0.00,,,0.01,WUHU216HW,2013-02-23 16:01:00,
2013-02-23 08:06:00,49.7,44.6,30.24,West,270,0.7,2.5,83,0.00,,,0.01,WUHU216HW,2013-02-23 16:06:00,
2013-02-23 08:11:00,49.7,44.6,30.24,WSW,248,1.8,3.1,83,0.00,,,0.01,WUHU216HW,2013-02-23 16:11:00,
2013-02-23 08:16:00,49.7,44.6,30.24,SW,225,2.5,3.1,83,0.00,,,0.01,WUHU216HW,2013-02-23 16:16:00,
2013-02-23 08:21:00,49.7,44.6,30.24,West,270,4.0,4.3,83,0.00,,,0.01,WUHU216HW,2013-02-23 16:21:00,
2013-02-23 08:26:00,49.7,44.6,30.24,WNW,293,1.8,4.7,83,0.00,,,0.01,WUHU216HW,2013-02-23 16:26:00,
2013-02-23 08:31:00,49.9,45.2,30.24,West,270,1.8,4.7,84,0.00,,,0.01,WUHU216HW,2013-02-23 16:31:00,
2013-02-23 08:36:00,50.0,45.4,30.24,NW,315,3.4,4.0,84,0.00,,,0.01,WUHU216HW,2013-02-23 16:36:00,
2013-02-23 08:41:00,50.0,45.0,30.25,WNW,293,2.7,5.4,83,0.00,,,0.01,WUHU216HW,2013-02-23 16:41:00,
2013-02-23 08:46:00,50.2,45.2,30.25,West,270,4.3,5.4,83,0.00,,,0.01,WUHU216HW,2013-02-23 16:46:00,
2013-02-23 08:51:00,50.2,45.2,30.25,WNW,293,4.0,4.3,83,0.00,,,0.01,WUHU216HW,2013-02-23 16:51:00,
2013-02-23 08:56:00,50.4,45.1,30.25,SW,225,2.5,4.0,82,0.00,,,0.01,WUHU216HW,2013-02-23 16:56:00,
2013-02-23 09:01:00,50.6,45.3,30.25,West,270,4.0,4.0,82,0.00,,,0.01,WUHU216HW,2013-02-23 17:01:00,
2013-02-23 09:06:00,50.8,45.1,30.25,West,270,3.6,6.3,81,0.00,,,0.01,WUHU216HW,2013-02-23 17:06:00,
2013-02-23 09:11:00,50.8,44.8,30.25,NW,315,4.3,6.3,80,0.00,,,0.01,WUHU216HW,2013-02-23 17:11:00,
2013-02-23 09:16:00,50.9,45.0,30.25,NW,315,5.1,5.1,80,0.00,,,0.01,WUHU216HW,2013-02-23 17:16:00,
2013-02-23 09:21:00,50.9,44.3,30.25,NNW,338,3.4,5.1,78,0.00,,,0.01,WUHU216HW,2013-02-23 17:21:00,
2013-02-23 09:26:00,51.3,44.4,30.25,North,0,2.2,5.1,77,0.00,,,0.01,WUHU216HW,2013-02-23 17:26:00,
2013-02-23 09:31:00,51.5,43.8,30.25,NW,315,3.4,4.7,75,0.00,,,0.01,WUHU216HW,2013-02-23 17:31:00,
2013-02-23 09:36:00,51.7,44.0,30.24,NW,315,1.6,4.7,75,0.00,,,0.01,WUHU216HW,2013-02-23 17:36:00,
2013-02-23 09:41:00,51.8,44.2,30.25,NW,315,4.3,4.3,75,0.00,,,0.01,WUHU216HW,2013-02-23 17:41:00,
2013-02-23 09:46:00,52.0,44.0,30.24,WNW,293,4.9,4.9,74,0.00,,,0.01,WUHU216HW,2013-02-23 17:46:00,
2013-02-23 09:52:00,52.2,43.8,30.24,NW,315,2.5,5.4,73,0.00,,,0.01,WUHU216HW,2013-02-23 17:52:00,
2013-02-23 09:57:00,52.4,43.7,30.24,NW,315,2.2,5.4,72,0.00,,,0.01,WUHU216HW,2013-02-23 17:57:00,
2013-02-23 10:02:00,52.6,43.8,30.24,NNW,338,6.3,6.3,72,0.00,,,0.01,WUHU216HW,2013-02-23 18:02:00,
2013-02-23 10:07:00,52.7,44.0,30.24,WNW,293,4.5,6.3,72,0.00,,,0.01,WUHU216HW,2013-02-23 18:07:00,
2013-02-23 10:12:00,52.9,43.8,30.24,West,270,4.7,6.3,71,0.00,,,0.01,WUHU216HW,2013-02-23 18:12:00,
2013-02-23 10:17:00,53.1,44.0,30.24,West,270,3.6,4.7,71,0.00,,,0.01,WUHU216HW,2013-02-23 18:17:00,
2013-02-23 10:22:00,53.3,44.5,30.24,WSW,248,2.0,4.7,72,0.00,,,0.01,WUHU216HW,2013-02-23 18:22:00,
2013-02-23 10:27:00,53.6,44.1,30.24,North,0,4.5,4.5,70,0.00,,,0.01,WUHU216HW,2013-02-23 18:27:00,
2013-02-23 10:32:00,53.6,43.3,30.24,NW,315,3.1,4.5,68,0.00,,,0.01,WUHU216HW,2013-02-23 18:32:00,
2013-02-23 10:37:00,53.8,43.9,30.24,NNW,338,4.3,4.5,69,0.00,,,0.01,WUHU216HW,2013-02-23 18:37:00,
2013-02-23 10:42:00,54.0,43.3,30.24,WNW,293,4.5,5.6,67,0.00,,,0.01,WUHU216HW,2013-02-23 18:42:00,
2013-02-23 10:47:00,54.2,42.7,30.23,West,270,1.8,5.6,65,0.00,,,0.01,WUHU216HW,2013-02-23 18:47:00,
2013-02-23 10:52:00,54.4,42.9,30.24,WNW,293,5.6,5.6,65,0.00,,,0.01,WUHU216HW,2013-02-23 18:52:00,
2013-02-23 10:57:00,54.5,42.6,30.23,NNW,338,3.4,5.6,64,0.00,,,0.01,WUHU216HW,2013-02-23 18:57:00,
2013-02-23 11:02:00,54.9,42.1,30.24,NW,315,3.8,6.5,62,0.00,,,0.01,WUHU216HW,2013-02-23 19:02:00,
2013-02-23 11:07:00,55.1,41.0,30.23,WNW,293,5.4,6.5,59,0.00,,,0.01,WUHU216HW,2013-02-23 19:07:00,
2013-02-23 11:12:00,55.4,41.3,30.23,North,0,3.6,5.6,59,0.00,,,0.01,WUHU216HW,2013-02-23 19:12:00,
2013-02-23 11:17:00,55.6,40.5,30.23,NNW,338,3.8,7.4,57,0.00,,,0.01,WUHU216HW,2013-02-23 19:17:00,
2013-02-23 11:22:00,55.8,40.2,30.23,North,0,4.7,7.4,56,0.00,,,0.01,WUHU216HW,2013-02-23 19:22:00,
2013-02-23 11:27:00,56.2,38.3,30.23,NE,45,5.4,5.4,51,0.00,,,0.01,WUHU216HW,2013-02-23 19:27:00,
2013-02-23 11:32:00,56.2,37.8,30.23,East,90,2.7,5.4,50,0.00,,,0.01,WUHU216HW,2013-02-23 19:32:00,
2013-02-23 11:37:00,56.5,40.1,30.22,NW,315,6.9,6.9,54,0.00,,,0.01,WUHU216HW,2013-02-23 19:37:00,
2013-02-23 11:42:00,56.7,41.1,30.22,SSW,203,5.4,8.1,56,0.00,,,0.01,WUHU216HW,2013-02-23 19:42:00,
2013-02-23 11:47:00,56.7,41.6,30.22,WNW,293,7.4,8.1,57,0.00,,,0.01,WUHU216HW,2013-02-23 19:47:00,
2013-02-23 11:52:00,56.5,41.0,30.22,West,270,8.5,8.5,56,0.00,,,0.01,WUHU216HW,2013-02-23 19:52:00,
2013-02-23 11:57:00,56.7,40.7,30.22,WNW,293,9.8,10.5,55,0.00,,,0.01,WUHU216HW,2013-02-23 19:57:00,
2013-02-23 12:02:00,56.5,40.5,30.22,West,270,6.3,10.5,55,0.00,,,0.01,WUHU216HW,2013-02-23 20:02:00,
2013-02-23 12:07:00,56.9,40.9,30.21,West,270,6.3,6.7,55,0.00,,,0.01,WUHU216HW,2013-02-23 20:07:00,
2013-02-23 12:12:00,56.7,40.2,30.21,WNW,293,9.6,9.6,54,0.00,,,0.01,WUHU216HW,2013-02-23 20:12:00,
2013-02-23 12:17:00,56.9,40.9,30.21,WNW,293,4.9,9.6,55,0.00,,,0.01,WUHU216HW,2013-02-23 20:17:00,
2013-02-23 12:22:00,56.9,40.9,30.21,WNW,293,6.9,9.6,55,0.00,,,0.01,WUHU216HW,2013-02-23 20:22:00,
2013-02-23 12:27:00,57.1,40.6,30.21,WSW,248,4.5,6.9,54,0.00,,,0.01,WUHU216HW,2013-02-23 20:27:00,
2013-02-23 12:32:00,56.9,40.4,30.21,WNW,293,6.3,7.4,54,0.00,,,0.01,WUHU216HW,2013-02-23 20:32:00,
2013-02-23 12:37:00,57.1,40.6,30.20,West,270,6.9,7.4,54,0.00,,,0.01,WUHU216HW,2013-02-23 20:37:00,
2013-02-23 12:42:00,57.2,40.8,30.20,West,270,6.3,6.9,54,0.00,,,0.01,WUHU216HW,2013-02-23 20:42:00,
2013-02-23 12:47:00,57.2,40.8,30.20,WNW,293,7.4,7.4,54,0.00,,,0.01,WUHU216HW,2013-02-23 20:47:00,
2013-02-23 12:52:00,57.2,40.3,30.20,WSW,248,8.3,8.5,53,0.00,,,0.01,WUHU216HW,2013-02-23 20:52:00,
2013-02-23 12:57:00,57.2,40.3,30.20,WSW,248,7.4,12.8,53,0.00,,,0.01,WUHU216HW,2013-02-23 20:57:00,
2013-02-23 13:02:00,57.2,40.3,30.19,WNW,293,5.8,12.8,53,0.00,,,0.01,WUHU216HW,2013-02-23 21:02:00,
2013-02-23 13:07:00,57.8,41.2,30.19,West,270,4.0,7.4,54,0.00,,,0.01,WUHU216HW,2013-02-23 21:07:00,
2013-02-23 13:12:00,58.0,41.0,30.19,WSW,248,4.3,4.3,53,0.00,,,0.01,WUHU216HW,2013-02-23 21:12:00,
2013-02-23 13:17:00,58.7,40.7,30.19,NW,315,9.2,9.2,51,0.00,,,0.01,WUHU216HW,2013-02-23 21:17:00,
2013-02-23 13:22:00,58.7,40.1,30.19,West,270,12.1,12.1,50,0.00,,,0.01,WUHU216HW,2013-02-23 21:22:00,
2013-02-23 13:27:00,58.7,39.6,30.18,NW,315,5.4,12.1,49,0.00,,,0.01,WUHU216HW,2013-02-23 21:27:00,
2013-02-23 13:32:00,58.9,39.8,30.18,West,270,8.9,12.1,49,0.00,,,0.01,WUHU216HW,2013-02-23 21:32:00,
2013-02-23 13:37:00,58.9,39.8,30.18,WNW,293,7.6,8.9,49,0.00,,,0.01,WUHU216HW,2013-02-23 21:37:00,
2013-02-23 13:42:00,59.0,40.0,30.18,NW,315,4.7,8.9,49,0.00,,,0.01,WUHU216HW,2013-02-23 21:42:00,
2013-02-23 13:47:00,58.9,39.2,30.17,WNW,293,8.5,12.3,48,0.00,,,0.01,WUHU216HW,2013-02-23 21:47:00,
2013-02-23 13:52:00,58.9,39.8,30.17,WSW,248,6.3,12.3,49,0.00,,,0.01,WUHU216HW,2013-02-23 21:52:00,
2013-02-23 13:57:00,59.0,40.0,30.17,West,270,6.0,13.6,49,0.00,,,0.01,WUHU216HW,2013-02-23 21:57:00,
2013-02-23 14:02:00,58.9,39.2,30.17,NW,315,4.3,13.6,48,0.00,,,0.01,WUHU216HW,2013-02-23 22:02:00,
2013-02-23 14:07:00,58.9,39.8,30.16,West,270,8.9,12.8,49,0.00,,,0.01,WUHU216HW,2013-02-23 22:07:00,
2013-02-23 14:12:00,58.9,39.8,30.16,SW,225,7.8,12.8,49,0.00,,,0.01,WUHU216HW,2013-02-23 22:12:00,
2013-02-23 14:17:00,58.7,39.6,30.16,WSW,248,5.1,9.2,49,0.00,,,0.01,WUHU216HW,2013-02-23 22:17:00,
2013-02-23 14:22:00,58.7,40.1,30.16,WNW,293,6.7,9.2,50,0.00,,,0.01,WUHU216HW,2013-02-23 22:22:00,
2013-02-23 14:27:00,58.7,40.7,30.16,WNW,293,11.2,11.2,51,0.00,,,0.01,WUHU216HW,2013-02-23 22:27:00,
2013-02-23 14:32:00,58.7,41.1,30.16,WSW,248,4.5,11.4,52,0.00,,,0.01,WUHU216HW,2013-02-23 22:32:00,
2013-02-23 14:37:00,58.7,41.6,30.16,West,270,11.0,13.9,53,0.00,,,0.01,WUHU216HW,2013-02-23 22:37:00,
2013-02-23 14:42:00,58.7,40.7,30.16,WSW,248,6.3,13.9,51,0.00,,,0.01,WUHU216HW,2013-02-23 22:42:00,
2013-02-23 14:47:00,58.9,40.8,30.16,West,270,6.9,11.0,51,0.00,,,0.01,WUHU216HW,2013-02-23 22:47:00,
2013-02-23 14:52:00,58.7,41.1,30.16,West,270,5.4,11.0,52,0.00,,,0.01,WUHU216HW,2013-02-23 22:52:00,
2013-02-23 14:57:00,58.7,40.7,30.16,West,270,15.0,15.0,51,0.00,,,0.01,WUHU216HW,2013-02-23 22:57:00,
2013-02-23 15:02:00,58.7,40.1,30.16,SW,225,6.0,15.0,50,0.00,,,0.01,WUHU216HW,2013-02-23 23:02:00,
2013-02-23 15:07:00,58.7,40.1,30.16,WSW,248,6.9,11.9,50,0.00,,,0.01,WUHU216HW,2013-02-23 23:07:00,
2013-02-23 15:12:00,58.5,40.1,30.16,WNW,293,12.5,12.5,50,0.00,,,0.01,WUHU216HW,2013-02-23 23:12:00,
2013-02-23 15:17:00,58.3,39.9,30.16,WSW,248,7.8,12.5,50,0.00,,,0.01,WUHU216HW,2013-02-23 23:17:00,
2013-02-23 15:22:00,58.3,39.9,30.16,West,270,7.2,12.5,50,0.00,,,0.01,WUHU216HW,2013-02-23 23:22:00,
2013-02-23 15:27:00,58.1,40.6,30.16,West,270,11.9,11.9,52,0.00,,,0.01,WUHU216HW,2013-02-23 23:27:00,
2013-02-23 15:32:00,58.1,40.6,30.16,SW,225,9.2,11.9,52,0.00,,,0.01,WUHU216HW,2013-02-23 23:32:00,
2013-02-23 15:37:00,58.3,41.2,30.16,NW,315,6.0,9.8,53,0.00,,,0.01,WUHU216HW,2013-02-23 23:37:00,
2013-02-23 15:42:00,58.3,41.2,30.16,SW,225,8.3,9.8,53,0.00,,,0.01,WUHU216HW,2013-02-23 23:42:00,
2013-02-23 15:47:00,58.3,41.8,30.16,WSW,248,8.1,8.3,54,0.00,,,0.01,WUHU216HW,2013-02-23 23:47:00,
2013-02-23 15:52:00,58.3,41.8,30.16,WNW,293,10.3,10.3,54,0.00,,,0.01,WUHU216HW,2013-02-23 23:52:00,
2013-02-23 15:57:00,58.3,41.8,30.16,WNW,293,6.9,10.3,54,0.00,,,0.01,WUHU216HW,2013-02-23 23:57:00,
2013-02-23 16:02:00,58.0,41.9,30.16,NW,315,7.4,10.3,55,0.00,,,0.01,WUHU216HW,2013-02-24 00:02:00,
2013-02-23 16:07:00,58.0,41.4,30.16,WNW,293,10.7,15.4,54,0.00,,,0.01,WUHU216HW,2013-02-24 00:07:00,
2013-02-23 16:12:00,57.6,41.0,30.16,WNW,293,8.7,15.4,54,0.00,,,0.01,WUHU216HW,2013-02-24 00:12:00,
2013-02-23 16:17:00,57.4,41.0,30.15,West,270,7.6,12.8,54,0.00,,,0.01,WUHU216HW,2013-02-24 00:17:00,
2013-02-23 16:22:00,57.2,40.8,30.16,West,270,9.4,12.8,54,0.00,,,0.01,WUHU216HW,2013-02-24 00:22:00,
2013-02-23 16:27:00,57.2,40.8,30.16,West,270,6.3,12.5,54,0.00,,,0.01,WUHU216HW,2013-02-24 00:27:00,
2013-02-23 16:32:00,57.2,40.8,30.16,NW,315,5.6,12.5,54,0.00,,,0.01,WUHU216HW,2013-02-24 00:32:00,
2013-02-23 16:37:00,57.2,40.8,30.16,WNW,293,3.8,6.9,54,0.00,,,0.01,WUHU216HW,2013-02-24 00:37:00,
2013-02-23 16:42:00,57.2,40.8,30.16,NW,315,7.4,7.4,54,0.00,,,0.01,WUHU216HW,2013-02-24 00:42:00,
2013-02-23 16:47:00,57.2,40.3,30.16,NW,315,7.2,7.4,53,0.00,,,0.01,WUHU216HW,2013-02-24 00:47:00,
2013-02-23 16:52:00,57.1,40.6,30.16,WSW,248,6.9,7.4,54,0.00,,,0.01,WUHU216HW,2013-02-24 00:52:00,
2013-02-23 16:57:00,56.9,40.4,30.15,NNW,338,4.0,6.9,54,0.00,,,0.01,WUHU216HW,2013-02-24 00:57:00,
2013-02-23 17:02:00,56.9,40.4,30.16,West,270,6.9,6.9,54,0.00,,,0.01,WUHU216HW,2013-02-24 01:02:00,
2013-02-23 17:07:00,56.9,40.4,30.16,West,270,4.0,6.9,54,0.00,,,0.01,WUHU216HW,2013-02-24 01:07:00,
2013-02-23 17:12:00,56.7,40.7,30.15,West,270,8.5,8.5,55,0.00,,,0.01,WUHU216HW,2013-02-24 01:12:00,
2013-02-23 17:17:00,56.7,40.7,30.16,WNW,293,7.6,8.5,55,0.00,,,0.01,WUHU216HW,2013-02-24 01:17:00,
2013-02-23 17:22:00,56.5,41.0,30.16,West,270,6.7,8.5,56,0.00,,,0.01,WUHU216HW,2013-02-24 01:22:00,
2013-02-23 17:27:00,56.5,41.0,30.16,WNW,293,13.0,13.0,56,0.00,,,0.01,WUHU216HW,2013-02-24 01:27:00,
2013-02-23 17:32:00,56.5,41.0,30.16,WNW,293,13.0,13.0,56,0.00,,,0.01,WUHU216HW,2013-02-24 01:32:00,
2013-02-23 18:01:00,55.1,41.9,30.17,WNW,293,2.7,4.5,61,0.00,,,0.01,WUHU216HW,2013-02-24 02:01:00,
2013-02-23 18:06:00,54.9,42.1,30.17,West,270,4.3,4.3,62,0.00,,,0.01,WUHU216HW,2013-02-24 02:06:00,
2013-02-23 18:11:00,54.7,42.0,30.18,NW,315,3.4,4.3,62,0.00,,,0.01,WUHU216HW,2013-02-24 02:11:00,
2013-02-23 18:16:00,54.5,42.2,30.18,WNW,293,2.7,4.3,63,0.00,,,0.01,WUHU216HW,2013-02-24 02:16:00,
2013-02-23 18:21:00,54.5,42.2,30.17,WNW,293,2.5,3.4,63,0.00,,,0.01,WUHU216HW,2013-02-24 02:21:00,
2013-02-23 18:26:00,54.4,42.0,30.18,West,270,4.3,4.7,63,0.00,,,0.01,WUHU216HW,2013-02-24 02:26:00,
2013-02-23 18:31:00,54.2,41.9,30.18,West,270,2.7,4.7,63,0.00,,,0.01,WUHU216HW,2013-02-24 02:31:00,
2013-02-23 18:36:00,54.2,41.9,30.18,West,270,0.0,2.7,63,0.00,,,0.01,WUHU216HW,2013-02-24 02:36:00,
2013-02-23 18:41:00,54.2,41.9,30.18,NNW,338,2.5,2.7,63,0.00,,,0.01,WUHU216HW,2013-02-24 02:41:00,
2013-02-23 18:46:00,54.2,41.4,30.18,North,0,3.4,3.4,62,0.00,,,0.01,WUHU216HW,2013-02-24 02:46:00,
2013-02-23 18:51:00,54.0,41.2,30.18,NNW,338,4.0,4.0,62,0.00,,,0.01,WUHU216HW,2013-02-24 02:51:00,
2013-02-23 18:56:00,53.5,40.3,30.19,NNW,338,2.5,4.0,61,0.00,,,0.01,WUHU216HW,2013-02-24 02:56:00,
2013-02-23 19:01:00,53.3,39.8,30.19,NNW,338,1.8,4.0,60,0.00,,,0.01,WUHU216HW,2013-02-24 03:01:00,
2013-02-23 19:06:00,53.3,39.8,30.19,North,0,1.8,2.0,60,0.00,,,0.01,WUHU216HW,2013-02-24 03:06:00,
2013-02-23 19:11:00,53.3,39.3,30.19,NW,315,2.0,2.5,59,0.00,,,0.01,WUHU216HW,2013-02-24 03:11:00,
2013-02-23 19:16:00,53.1,39.2,30.19,NNW,338,1.8,2.5,59,0.00,,,0.01,WUHU216HW,2013-02-24 03:16:00,
2013-02-23 19:21:00,53.1,39.2,30.18,NNW,338,2.0,2.5,59,0.00,,,0.01,WUHU216HW,2013-02-24 03:21:00,
2013-02-23 19:26:00,52.9,39.0,30.18,NW,315,1.3,2.0,59,0.00,,,0.01,WUHU216HW,2013-02-24 03:26:00,
2013-02-23 19:31:00,52.7,38.8,30.18,NW,315,1.3,2.2,59,0.00,,,0.01,WUHU216HW,2013-02-24 03:31:00,
2013-02-23 19:36:00,52.7,38.8,30.18,NW,315,1.3,2.2,59,0.00,,,0.01,WUHU216HW,2013-02-24 03:36:00,
2013-02-23 19:41:00,52.6,38.6,30.19,NNW,338,1.6,2.5,59,0.00,,,0.01,WUHU216HW,2013-02-24 03:41:00,
2013-02-23 19:46:00,52.4,38.9,30.19,NW,315,1.8,2.5,60,0.00,,,0.01,WUHU216HW,2013-02-24 03:46:00,
2013-02-23 19:51:00,52.2,38.7,30.18,WNW,293,1.6,2.9,60,0.00,,,0.01,WUHU216HW,2013-02-24 03:51:00,
2013-02-23 19:56:00,52.2,38.7,30.19,NNW,338,1.6,2.9,60,0.00,,,0.01,WUHU216HW,2013-02-24 03:56:00,
2013-02-23 20:01:00,52.0,38.5,30.19,NNW,338,2.5,2.7,60,0.00,,,0.01,WUHU216HW,2013-02-24 04:01:00,
2013-02-23 20:06:00,51.8,37.9,30.19,NW,315,2.7,2.7,59,0.00,,,0.01,WUHU216HW,2013-02-24 04:06:00,
2013-02-23 20:11:00,51.8,38.3,30.19,NW,315,2.9,2.9,60,0.00,,,0.01,WUHU216HW,2013-02-24 04:11:00,
2013-02-23 20:16:00,51.5,38.0,30.19,NW,315,3.4,3.4,60,0.00,,,0.01,WUHU216HW,2013-02-24 04:16:00,
2013-02-23 20:21:00,51.3,37.9,30.19,NW,315,4.9,4.9,60,0.00,,,0.01,WUHU216HW,2013-02-24 04:21:00,
2013-02-23 20:26:00,51.3,37.9,30.20,North,0,3.8,4.9,60,0.00,,,0.01,WUHU216HW,2013-02-24 04:26:00,
2013-02-23 20:31:00,51.1,37.7,30.19,NNW,338,5.4,5.4,60,0.00,,,0.01,WUHU216HW,2013-02-24 04:31:00,
2013-02-23 20:36:00,51.1,38.1,30.19,NNW,338,4.5,6.0,61,0.00,,,0.01,WUHU216HW,2013-02-24 04:36:00,
2013-02-23 20:41:00,51.1,38.1,30.19,NNW,338,4.9,6.0,61,0.00,,,0.01,WUHU216HW,2013-02-24 04:41:00,
2013-02-23 20:46:00,51.1,38.1,30.19,NNW,338,4.7,7.4,61,0.00,,,0.01,WUHU216HW,2013-02-24 04:46:00,
2013-02-23 20:51:00,51.1,38.1,30.19,NW,315,5.4,7.4,61,0.00,,,0.01,WUHU216HW,2013-02-24 04:51:00,
2013-02-23 20:56:00,51.1,38.1,30.20,NNW,338,5.4,6.0,61,0.00,,,0.01,WUHU216HW,2013-02-24 04:56:00,
2013-02-23 21:01:00,51.1,38.1,30.19,NNW,338,6.0,6.0,61,0.00,,,0.01,WUHU216HW,2013-02-24 05:01:00,
2013-02-23 21:06:00,51.1,38.1,30.20,WNW,293,2.0,6.0,61,0.00,,,0.01,WUHU216HW,2013-02-24 05:06:00,
2013-02-23 21:11:00,50.9,38.0,30.19,NNW,338,3.1,3.6,61,0.00,,,0.01,WUHU216HW,2013-02-24 05:11:00,
2013-02-23 21:16:00,50.8,37.8,30.20,NW,315,2.5,4.0,61,0.00,,,0.01,WUHU216HW,2013-02-24 05:16:00,
2013-02-23 21:21:00,50.8,37.8,30.20,NNW,338,3.4,4.0,61,0.00,,,0.01,WUHU216HW,2013-02-24 05:21:00,
2013-02-23 21:26:00,50.8,37.8,30.19,NW,315,3.4,3.4,61,0.00,,,0.01,WUHU216HW,2013-02-24 05:26:00,
2013-02-23 21:31:00,50.6,38.0,30.19,NW,315,2.5,3.4,62,0.00,,,0.01,WUHU216HW,2013-02-24 05:31:00,
2013-02-23 21:36:00,50.6,38.0,30.19,NW,315,2.9,2.9,62,0.00,,,0.01,WUHU216HW,2013-02-24 05:36:00,
2013-02-23 21:41:00,50.4,37.8,30.20,NNW,338,2.0,2.9,62,0.00,,,0.01,WUHU216HW,2013-02-24 05:41:00,
2013-02-23 21:46:00,50.2,37.7,30.20,NW,315,2.5,2.5,62,0.00,,,0.01,WUHU216HW,2013-02-24 05:46:00,
2013-02-23 21:51:00,50.0,37.5,30.20,WNW,293,2.5,3.4,62,0.00,,,0.01,WUHU216HW,2013-02-24 05:51:00,
2013-02-23 21:56:00,49.7,37.2,30.20,NNW,338,2.0,3.4,62,0.00,,,0.01,WUHU216HW,2013-02-24 05:56:00,
2013-02-23 22:01:00,49.7,37.2,30.20,NNW,338,2.0,3.4,62,0.00,,,0.01,WUHU216HW,2013-02-24 06:01:00,
2013-02-23 22:06:00,49.7,37.2,30.20,North,0,4.0,4.0,62,0.00,,,0.01,WUHU216HW,2013-02-24 06:06:00,
2013-02-23 22:11:00,49.7,37.2,30.20,North,0,2.5,4.0,62,0.00,,,0.01,WUHU216HW,2013-02-24 06:11:00,
2013-02-23 22:16:00,49.7,36.8,30.20,NNW,338,3.8,4.0,61,0.00,,,0.01,WUHU216HW,2013-02-24 06:16:00,
2013-02-23 22:21:00,49.9,36.5,30.20,NW,315,3.6,3.8,60,0.00,,,0.01,WUHU216HW,2013-02-24 06:21:00,
2013-02-23 22:26:00,49.9,36.5,30.20,NW,315,3.4,3.6,60,0.00,,,0.01,WUHU216HW,2013-02-24 06:26:00,
2013-02-23 22:31:00,49.9,36.5,30.20,NW,315,5.1,5.1,60,0.00,,,0.01,WUHU216HW,2013-02-24 06:31:00,
2013-02-23 22:36:00,50.0,36.3,30.19,NNW,338,5.4,6.5,59,0.00,,,0.01,WUHU216HW,2013-02-24 06:36:00,
2013-02-23 22:41:00,50.0,35.4,30.19,North,0,4.7,6.5,57,0.00,,,0.01,WUHU216HW,2013-02-24 06:41:00,
2013-02-23 22:46:00,50.2,35.1,30.19,North,0,5.8,8.7,56,0.00,,,0.01,WUHU216HW,2013-02-24 06:46:00,
2013-02-23 22:51:00,50.6,34.5,30.19,North,0,10.1,10.5,54,0.00,,,0.01,WUHU216HW,2013-02-24 06:51:00,
2013-02-23 22:56:00,50.8,33.8,30.19,NNW,338,8.9,10.5,52,0.00,,,0.01,WUHU216HW,2013-02-24 06:56:00,
2013-02-23 23:01:00,51.1,32.0,30.19,NW,315,7.6,11.4,48,0.00,,,0.01,WUHU216HW,2013-02-24 07:01:00,
2013-02-23 23:06:00,51.3,32.2,30.19,North,0,8.5,11.4,48,0.00,,,0.01,WUHU216HW,2013-02-24 07:06:00,
2013-02-23 23:11:00,51.5,31.9,30.19,NW,315,8.5,10.1,47,0.00,,,0.01,WUHU216HW,2013-02-24 07:11:00,
2013-02-23 23:16:00,51.7,32.1,30.19,North,0,8.3,8.5,47,0.00,,,0.01,WUHU216HW,2013-02-24 07:16:00,
2013-02-23 23:21:00,51.8,29.3,30.19,North,0,7.6,12.3,42,0.00,,,0.01,WUHU216HW,2013-02-24 07:21:00,
2013-02-23 23:26:00,52.0,30.1,30.19,NNW,338,10.3,12.3,43,0.00,,,0.01,WUHU216HW,2013-02-24 07:26:00,
2013-02-23 23:31:00,52.2,29.2,30.19,WNW,293,9.2,15.0,41,0.00,,,0.01,WUHU216HW,2013-02-24 07:31:00,
2013-02-23 23:36:00,52.2,28.6,30.19,NNW,338,10.5,15.0,40,0.00,,,0.01,WUHU216HW,2013-02-24 07:36:00,
2013-02-23 23:41:00,52.2,28.6,30.19,NNW,338,9.8,11.4,40,0.00,,,0.01,WUHU216HW,2013-02-24 07:41:00,
2013-02-23 23:46:00,52.4,28.1,30.19,NNW,338,8.9,12.1,39,0.00,,,0.01,WUHU216HW,2013-02-24 07:46:00,
2013-02-23 23:51:00,52.4,27.4,30.19,North,0,10.5,12.1,38,0.00,,,0.01,WUHU216HW,2013-02-24 07:51:00,
2013-02-23 23:56:00,52.4,27.4,30.19,NNW,338,9.8,11.2,38,0.00,,,0.01,WUHU216HW,2013-02-24 07:56:00,